createdAt,value
2022-12-27T00:00:06.559Z,67.72
2022-12-27T00:02:40.245Z,68.55
2022-12-27T00:05:10.857Z,67.67
2022-12-27T00:07:37.512Z,68.56
2022-12-27T00:10:05.297Z,68.17
2022-12-27T00:12:31.890Z,67.97
2022-12-27T00:14:58.607Z,67.06
2022-12-27T00:17:25.215Z,67.05
2022-12-27T00:19:51.750Z,67.21
2022-12-27T00:22:21.248Z,67.50
2022-12-27T00:24:47.915Z,66.04
2022-12-27T00:27:14.699Z,66.34
2022-12-27T00:29:41.374Z,66.70
2022-12-27T00:32:14.501Z,66.42
2022-12-27T00:34:43.276Z,66.68
2022-12-27T00:37:09.845Z,66.75
2022-12-27T00:39:36.733Z,67.70
2022-12-27T00:42:04.203Z,67.01
2022-12-27T00:44:30.880Z,67.03
2022-12-27T00:46:59.007Z,67.59
2022-12-27T00:49:25.672Z,67.22
2022-12-27T00:51:52.177Z,66.56
2022-12-27T00:54:20.203Z,67.34
2022-12-27T00:56:49.465Z,65.41
2022-12-27T00:59:15.980Z,67.62
2022-12-27T01:01:42.709Z,66.33
2022-12-27T01:04:12.673Z,67.15
2022-12-27T01:06:39.251Z,66.22
2022-12-27T01:09:06.447Z,65.33
2022-12-27T01:11:33.642Z,66.10
2022-12-27T01:14:02.483Z,65.99
2022-12-27T01:16:30.677Z,64.76
2022-12-27T01:18:57.140Z,65.26
2022-12-27T01:21:25.155Z,64.69
2022-12-27T01:23:52.417Z,64.58
2022-12-27T01:26:21.514Z,64.43
2022-12-27T01:28:48.889Z,64.53
2022-12-27T01:31:18.200Z,64.62
2022-12-27T01:33:45.031Z,64.60
2022-12-27T01:36:22.075Z,64.30
2022-12-27T01:38:49.149Z,65.05
2022-12-27T01:41:37.667Z,64.76
2022-12-27T01:44:47.086Z,64.17
2022-12-27T01:47:18.121Z,64.60
2022-12-27T01:50:13.985Z,66.18
2022-12-27T01:52:54.964Z,65.90
2022-12-27T01:55:29.756Z,65.53
2022-12-27T01:58:01.407Z,65.02
2022-12-27T02:00:28.038Z,64.64
2022-12-27T02:02:54.778Z,64.81
2022-12-27T02:05:24.803Z,65.30
2022-12-27T02:08:09.493Z,64.90
2022-12-27T02:10:36.864Z,65.66
2022-12-27T02:13:04.752Z,65.60
2022-12-27T02:15:31.345Z,65.57
2022-12-27T02:17:58.189Z,65.65
2022-12-27T02:20:25.806Z,66.16
2022-12-27T02:24:02.287Z,66.08
2022-12-27T02:26:53.198Z,65.96
2022-12-27T02:29:43.900Z,66.08
2022-12-27T02:32:23.028Z,65.93
2022-12-27T02:35:09.916Z,66.17
2022-12-27T02:37:40.284Z,66.64
2022-12-27T02:40:27.426Z,66.56
2022-12-27T02:43:13.603Z,66.15
2022-12-27T02:46:06.719Z,66.31
2022-12-27T02:48:51.818Z,65.83
2022-12-27T02:51:56.798Z,65.94
2022-12-27T02:54:48.367Z,66.29
2022-12-27T02:57:42.157Z,66.08
2022-12-27T03:00:39.334Z,66.19
2022-12-27T03:03:24.824Z,66.15
2022-12-27T03:06:24.611Z,65.86
2022-12-27T03:09:47.378Z,67.36
2022-12-27T03:12:42.052Z,66.66
2022-12-27T03:15:41.577Z,66.84
2022-12-27T03:18:13.241Z,66.88
2022-12-27T03:20:58.904Z,66.66
2022-12-27T03:23:45.690Z,66.71
2022-12-27T03:26:13.815Z,66.31
2022-12-27T03:29:00.327Z,66.26
2022-12-27T03:31:48.939Z,66.36
2022-12-27T03:34:31.924Z,66.40
2022-12-27T03:37:27.813Z,66.10
2022-12-27T03:40:08.705Z,66.83
2022-12-27T03:43:00.882Z,65.94
2022-12-27T03:46:00.360Z,66.86
2022-12-27T03:48:31.436Z,66.93
2022-12-27T03:51:04.884Z,66.81
2022-12-27T03:53:37.735Z,66.67
2022-12-27T03:56:06.025Z,67.50
2022-12-27T03:58:32.713Z,67.13
2022-12-27T04:00:59.450Z,66.89
2022-12-27T04:03:26.291Z,66.83
2022-12-27T04:05:52.943Z,66.45
2022-12-27T04:08:38.309Z,66.72
2022-12-27T04:11:23.287Z,66.88
2022-12-27T04:14:08.480Z,67.07
2022-12-27T04:16:53.425Z,66.57
2022-12-27T04:19:38.212Z,66.88
2022-12-27T04:22:23.302Z,66.74
2022-12-27T04:25:09.454Z,66.75
2022-12-27T04:27:54.685Z,66.57
2022-12-27T04:30:39.886Z,66.20
2022-12-27T04:33:24.800Z,66.79
2022-12-27T04:35:51.308Z,66.54
2022-12-27T04:38:17.826Z,66.17
2022-12-27T04:41:02.785Z,66.53
2022-12-27T04:43:48.089Z,66.33
2022-12-27T04:46:40.375Z,66.99
2022-12-27T04:49:29.741Z,66.96
2022-12-27T04:52:15.008Z,66.07
2022-12-27T04:54:57.005Z,66.36
2022-12-27T04:57:23.769Z,66.40
2022-12-27T05:00:09.124Z,66.84
2022-12-27T05:02:35.995Z,67.00
2022-12-27T05:05:02.744Z,66.62
2022-12-27T05:07:47.876Z,67.09
2022-12-27T05:10:33.179Z,66.50
2022-12-27T05:13:18.038Z,66.66
2022-12-27T05:15:44.627Z,67.14
2022-12-27T05:18:11.203Z,68.02
2022-12-27T05:20:37.734Z,67.43
2022-12-27T05:23:22.885Z,66.88
2022-12-27T05:25:51.358Z,66.62
2022-12-27T05:28:17.890Z,66.29
2022-12-27T05:30:44.760Z,66.77
2022-12-27T05:33:11.873Z,67.99
2022-12-27T05:35:38.775Z,66.96
2022-12-27T05:38:05.527Z,67.08
2022-12-27T05:40:32.397Z,66.59
2022-12-27T05:43:00.013Z,67.00
2022-12-27T05:45:26.987Z,66.90
2022-12-27T05:47:53.492Z,66.72
2022-12-27T05:50:20.759Z,66.54
2022-12-27T05:52:50.114Z,66.01
2022-12-27T05:55:17.056Z,66.40
2022-12-27T05:57:43.687Z,66.51
2022-12-27T06:00:12.562Z,66.33
2022-12-27T06:02:40.740Z,66.46
2022-12-27T06:05:08.065Z,66.85
2022-12-27T06:07:36.838Z,66.60
2022-12-27T06:10:05.506Z,66.07
2022-12-27T06:12:31.992Z,66.61
2022-12-27T06:14:58.527Z,66.43
2022-12-27T06:17:25.089Z,66.44
2022-12-27T06:19:56.776Z,66.80
2022-12-27T06:22:24.041Z,67.38
2022-12-27T06:24:50.609Z,67.39
2022-12-27T06:27:17.222Z,66.77
2022-12-27T06:29:44.275Z,66.01
2022-12-27T06:32:11.009Z,66.19
2022-12-27T06:34:37.618Z,66.06
2022-12-27T06:37:04.162Z,66.56
2022-12-27T06:39:30.964Z,67.24
2022-12-27T06:41:57.537Z,66.79
2022-12-27T06:44:24.070Z,66.56
2022-12-27T06:46:50.588Z,65.76
2022-12-27T06:49:17.175Z,66.30
2022-12-27T06:51:43.729Z,66.72
2022-12-27T06:54:10.317Z,66.42
2022-12-27T06:56:36.881Z,65.74
2022-12-27T06:59:03.430Z,66.60
2022-12-27T07:01:30.172Z,66.34
2022-12-27T07:04:00.281Z,66.79
2022-12-27T07:06:28.923Z,66.19
2022-12-27T07:08:56.327Z,65.93
2022-12-27T07:11:23.912Z,65.85
2022-12-27T07:13:53.787Z,65.92
2022-12-27T07:16:23.183Z,66.40
2022-12-27T07:18:52.497Z,66.10
2022-12-27T07:21:21.901Z,66.10
2022-12-27T07:23:49.156Z,65.86
2022-12-27T07:26:24.340Z,65.90
2022-12-27T07:28:56.794Z,66.33
2022-12-27T07:31:24.717Z,65.56
2022-12-27T07:33:51.775Z,66.18
2022-12-27T07:36:23.389Z,65.90
2022-12-27T07:38:50.104Z,65.83
2022-12-27T07:41:17.933Z,66.02
2022-12-27T07:43:44.839Z,66.37
2022-12-27T07:46:20.199Z,66.22
2022-12-27T07:48:47.386Z,66.15
2022-12-27T07:51:15.651Z,66.29
2022-12-27T07:53:42.547Z,65.44
2022-12-27T07:56:23.405Z,66.04
2022-12-27T07:58:53.336Z,66.07
2022-12-27T08:01:21.668Z,65.76
2022-12-27T08:03:48.669Z,65.67
2022-12-27T08:06:23.608Z,65.77
2022-12-27T08:08:52.115Z,65.77
2022-12-27T08:11:18.849Z,65.10
2022-12-27T08:13:45.564Z,65.59
2022-12-27T08:16:18.225Z,66.34
2022-12-27T08:18:45.213Z,66.14
2022-12-27T08:21:11.980Z,66.18
2022-12-27T08:23:38.552Z,65.56
2022-12-27T08:26:05.376Z,65.82
2022-12-27T08:28:31.985Z,66.37
2022-12-27T08:30:59.748Z,66.88
2022-12-27T08:33:27.486Z,65.07
2022-12-27T08:35:55.056Z,64.74
2022-12-27T08:38:24.505Z,64.38
2022-12-27T08:40:51.137Z,64.45
2022-12-27T08:43:17.806Z,64.63
2022-12-27T08:45:44.358Z,64.38
2022-12-27T08:48:11.504Z,64.43
2022-12-27T08:50:38.071Z,63.95
2022-12-27T08:53:08.540Z,63.21
2022-12-27T08:55:37.527Z,63.21
2022-12-27T08:58:15.503Z,62.77
2022-12-27T09:00:44.859Z,63.20
2022-12-27T09:03:11.498Z,63.02
2022-12-27T09:05:41.605Z,63.86
2022-12-27T09:08:08.546Z,65.42
2022-12-27T09:10:35.141Z,65.81
2022-12-27T09:13:02.033Z,64.73
2022-12-27T09:15:28.684Z,63.85
2022-12-27T09:17:55.632Z,63.62
2022-12-27T09:20:22.171Z,63.55
2022-12-27T09:22:50.066Z,63.86
2022-12-27T09:25:16.674Z,64.01
2022-12-27T09:27:43.237Z,64.03
2022-12-27T09:30:12.104Z,64.52
2022-12-27T09:32:38.603Z,65.21
2022-12-27T09:35:05.791Z,64.04
2022-12-27T09:37:32.577Z,63.51
2022-12-27T09:39:59.161Z,63.04
2022-12-27T09:42:53.463Z,62.83
2022-12-27T09:45:38.093Z,64.17
2022-12-27T09:48:11.013Z,62.29
2022-12-27T09:51:10.935Z,62.57
2022-12-27T09:53:44.694Z,61.26
2022-12-27T09:56:25.091Z,60.50
2022-12-27T09:58:54.819Z,61.12
2022-12-27T10:01:21.644Z,60.59
2022-12-27T10:03:49.264Z,61.75
2022-12-27T10:06:57.388Z,61.45
2022-12-27T10:09:54.170Z,61.97
2022-12-27T10:12:54.927Z,61.85
2022-12-27T10:15:48.389Z,60.54
2022-12-27T10:18:30.098Z,61.26
2022-12-27T10:21:20.749Z,60.64
2022-12-27T10:23:53.075Z,60.81
2022-12-27T10:26:23.481Z,60.29
2022-12-27T10:28:58.211Z,59.24
2022-12-27T10:31:24.847Z,60.45
2022-12-27T10:33:51.984Z,59.16
2022-12-27T10:36:22.718Z,59.63
2022-12-27T10:38:49.859Z,59.15
2022-12-27T10:41:38.803Z,59.74
2022-12-27T10:44:10.835Z,59.70
2022-12-27T10:46:37.605Z,59.78
2022-12-27T10:49:22.968Z,59.76
2022-12-27T10:51:51.753Z,59.92
2022-12-27T10:54:25.087Z,59.38
2022-12-27T10:56:52.229Z,60.27
2022-12-27T10:59:22.170Z,59.06
2022-12-27T11:01:53.050Z,59.58
2022-12-27T11:04:24.129Z,58.25
2022-12-27T11:07:00.013Z,59.70
2022-12-27T11:09:30.516Z,58.96
2022-12-27T11:12:18.782Z,58.55
2022-12-27T11:14:56.958Z,58.75
2022-12-27T11:17:32.166Z,58.21
2022-12-27T11:19:59.771Z,58.89
2022-12-27T11:22:26.828Z,59.48
2022-12-27T11:24:55.636Z,58.69
2022-12-27T11:27:24.599Z,58.10
2022-12-27T11:29:51.958Z,59.13
2022-12-27T11:32:20.017Z,57.95
2022-12-27T11:34:49.007Z,59.83
2022-12-27T11:37:21.223Z,59.03
2022-12-27T11:39:51.904Z,60.05
2022-12-27T11:42:45.312Z,59.18
2022-12-27T11:45:17.795Z,59.44
2022-12-27T11:48:14.097Z,59.87
2022-12-27T11:51:02.083Z,60.28
2022-12-27T11:53:50.938Z,61.23
2022-12-27T11:56:27.652Z,60.99
2022-12-27T11:59:01.744Z,60.45
2022-12-27T12:01:46.598Z,60.39
2022-12-27T12:04:37.906Z,60.33
2022-12-27T12:07:17.419Z,59.06
2022-12-27T12:10:13.001Z,58.35
2022-12-27T12:12:52.725Z,58.05
2022-12-27T12:15:46.371Z,57.61
2022-12-27T12:18:13.418Z,56.12
2022-12-27T12:20:50.739Z,56.48
2022-12-27T12:23:31.228Z,56.32
2022-12-27T12:26:23.414Z,54.61
2022-12-27T12:29:14.581Z,55.31
2022-12-27T12:31:41.317Z,54.79
2022-12-27T12:34:34.771Z,55.24
2022-12-27T12:37:46.873Z,57.49
2022-12-27T12:40:41.649Z,54.87
2022-12-27T12:43:19.756Z,55.32
2022-12-27T12:46:21.578Z,54.43
2022-12-27T12:49:10.316Z,54.06
2022-12-27T12:52:04.414Z,54.58
2022-12-27T12:54:49.035Z,53.69
2022-12-27T12:57:27.649Z,54.79
2022-12-27T13:00:04.855Z,53.80
2022-12-27T13:02:56.437Z,53.54
2022-12-27T13:05:41.438Z,54.01
2022-12-27T13:08:08.239Z,53.64
2022-12-27T13:10:56.597Z,53.99
2022-12-27T13:13:38.638Z,55.47
2022-12-27T13:16:17.322Z,53.32
2022-12-27T13:19:24.963Z,54.52
2022-12-27T13:22:12.755Z,54.22
2022-12-27T13:25:13.309Z,54.20
2022-12-27T13:27:47.434Z,54.15
2022-12-27T13:30:22.899Z,54.13
2022-12-27T13:33:33.860Z,53.66
2022-12-27T13:36:27.223Z,54.41
2022-12-27T13:39:12.896Z,56.17
2022-12-27T13:42:17.210Z,55.79
2022-12-27T13:44:56.811Z,55.20
2022-12-27T13:47:42.497Z,55.58
2022-12-27T13:50:23.948Z,56.08
2022-12-27T13:53:01.796Z,54.78
2022-12-27T13:55:37.046Z,54.82
2022-12-27T13:58:09.441Z,54.79
2022-12-27T14:00:55.523Z,56.89
2022-12-27T14:03:40.147Z,55.74
2022-12-27T14:06:54.582Z,56.20
2022-12-27T14:09:47.925Z,56.75
2022-12-27T14:12:27.895Z,56.96
2022-12-27T14:14:57.736Z,57.99
2022-12-27T14:17:43.057Z,55.82
2022-12-27T14:20:21.763Z,57.22
2022-12-27T14:22:54.359Z,56.40
2022-12-27T14:25:45.895Z,56.33
2022-12-27T14:28:47.715Z,55.35
2022-12-27T14:31:41.438Z,54.87
2022-12-27T14:34:22.354Z,56.11
2022-12-27T14:37:10.061Z,56.67
2022-12-27T14:39:56.624Z,56.29
2022-12-27T14:43:04.646Z,54.92
2022-12-27T14:46:00.886Z,55.17
2022-12-27T14:48:42.907Z,55.63
2022-12-27T14:52:07.212Z,58.38
2022-12-27T14:54:52.194Z,58.09
2022-12-27T14:57:44.466Z,58.27
2022-12-27T15:00:17.536Z,58.74
2022-12-27T15:03:20.838Z,58.99
2022-12-27T15:06:09.564Z,59.22
2022-12-27T15:08:45.609Z,59.64
2022-12-27T15:11:30.499Z,58.83
2022-12-27T15:14:17.457Z,60.67
2022-12-27T15:16:50.272Z,58.30
2022-12-27T15:19:24.784Z,58.41
2022-12-27T15:22:00.391Z,59.73
2022-12-27T15:24:52.083Z,58.65
2022-12-27T15:27:35.232Z,58.99
2022-12-27T15:30:08.060Z,60.06
2022-12-27T15:32:42.137Z,60.38
2022-12-27T15:35:30.299Z,59.70
2022-12-27T15:38:03.135Z,59.95
2022-12-27T15:40:32.685Z,59.67
2022-12-27T15:43:29.929Z,60.78
2022-12-27T15:46:08.248Z,60.15
2022-12-27T15:48:51.661Z,60.56
2022-12-27T15:51:42.338Z,61.26
2022-12-27T15:54:53.624Z,61.42
2022-12-27T15:57:27.885Z,61.43
2022-12-27T16:00:13.286Z,61.01
2022-12-27T16:02:46.385Z,60.27
2022-12-27T16:05:40.146Z,60.62
2022-12-27T16:08:09.789Z,61.57
2022-12-27T16:10:42.125Z,60.88
2022-12-27T16:13:11.414Z,61.39
2022-12-27T16:15:44.820Z,61.29
2022-12-27T16:18:50.531Z,61.20
2022-12-27T16:21:25.543Z,61.03
2022-12-27T16:24:01.291Z,61.27
2022-12-27T16:26:33.576Z,61.90
2022-12-27T16:29:03.085Z,61.08
2022-12-27T16:31:36.822Z,61.23
2022-12-27T16:34:18.735Z,61.91
2022-12-27T16:36:47.657Z,62.22
2022-12-27T16:39:32.779Z,62.44
2022-12-27T16:42:02.556Z,62.43
2022-12-27T16:45:05.589Z,62.11
2022-12-27T16:47:41.538Z,62.08
2022-12-27T16:50:26.889Z,62.07
2022-12-27T16:53:11.992Z,63.66
2022-12-27T16:55:47.824Z,63.15
2022-12-27T16:58:24.818Z,62.89
2022-12-27T17:00:53.028Z,62.82
2022-12-27T17:03:22.395Z,62.71
2022-12-27T17:06:21.717Z,62.42
2022-12-27T17:08:36.660Z,62.86
2022-12-27T17:11:23.015Z,63.29
2022-12-27T17:14:00.504Z,63.05
2022-12-27T17:16:28.578Z,63.79
2022-12-27T17:19:00.244Z,63.29
2022-12-27T17:21:35.792Z,63.27
2022-12-27T17:24:08.305Z,62.95
2022-12-27T17:27:01.119Z,63.06
2022-12-27T17:30:04.652Z,63.33
2022-12-27T17:32:59.683Z,63.78
2022-12-27T17:35:36.008Z,63.37
2022-12-27T17:38:19.240Z,64.40
2022-12-27T17:41:02.737Z,64.21
2022-12-27T17:43:57.122Z,64.23
2022-12-27T17:46:50.992Z,65.01
2022-12-27T17:49:17.856Z,65.01
2022-12-27T17:52:05.526Z,65.48
2022-12-27T17:54:50.833Z,65.59
2022-12-27T17:57:37.906Z,66.38
2022-12-27T18:00:06.556Z,65.81
2022-12-27T18:02:39.202Z,66.27
2022-12-27T18:05:08.357Z,66.91
2022-12-27T18:07:35.369Z,66.43
2022-12-27T18:10:19.089Z,66.58
2022-12-27T18:12:50.258Z,66.57
2022-12-27T18:15:19.944Z,66.66
2022-12-27T18:18:00.458Z,66.74
2022-12-27T18:20:29.850Z,66.98
2022-12-27T18:23:02.469Z,66.96
2022-12-27T18:25:30.248Z,67.00
2022-12-27T18:28:01.612Z,67.57
2022-12-27T18:30:31.911Z,67.32
2022-12-27T18:32:59.303Z,67.17
2022-12-27T18:35:26.343Z,66.88
2022-12-27T18:37:53.672Z,66.56
2022-12-27T18:40:22.550Z,66.70
2022-12-27T18:42:51.480Z,66.30
2022-12-27T18:45:23.483Z,66.58
2022-12-27T18:47:51.390Z,66.97
2022-12-27T18:50:23.351Z,66.97
2022-12-27T18:53:05.085Z,67.47
2022-12-27T18:55:32.171Z,68.27
2022-12-27T18:58:04.947Z,67.89
2022-12-27T19:00:31.594Z,67.79
2022-12-27T19:03:16.126Z,67.28
2022-12-27T19:06:11.749Z,67.48
2022-12-27T19:08:45.620Z,67.24
2022-12-27T19:11:24.122Z,67.10
2022-12-27T19:13:52.772Z,67.20
2022-12-27T19:16:23.349Z,67.63
2022-12-27T19:18:52.134Z,67.31
2022-12-27T19:21:18.998Z,67.56
2022-12-27T19:23:49.349Z,67.31
2022-12-27T19:26:15.827Z,67.41
2022-12-27T19:28:43.315Z,67.24
2022-12-27T19:31:19.788Z,67.40
2022-12-27T19:33:55.014Z,67.67
2022-12-27T19:36:25.627Z,67.83
2022-12-27T19:38:52.234Z,67.63
2022-12-27T19:41:19.913Z,67.32
2022-12-27T19:43:46.820Z,67.91
2022-12-27T19:46:14.266Z,67.70
2022-12-27T19:48:41.065Z,67.90
2022-12-27T19:51:07.896Z,67.96
2022-12-27T19:53:38.231Z,67.95
2022-12-27T19:56:07.065Z,67.45
2022-12-27T19:58:33.570Z,68.03
2022-12-27T20:01:00.783Z,67.59
2022-12-27T20:03:27.898Z,67.67
2022-12-27T20:06:12.599Z,67.63
2022-12-27T20:08:46.431Z,67.47
2022-12-27T20:11:19.747Z,68.42
2022-12-27T20:13:46.597Z,67.82
2022-12-27T20:16:15.658Z,67.38
2022-12-27T20:18:43.434Z,67.59
2022-12-27T20:21:13.108Z,67.92
2022-12-27T20:23:39.974Z,68.00
2022-12-27T20:26:06.657Z,67.88
2022-12-27T20:28:33.247Z,67.59
2022-12-27T20:30:59.997Z,67.59
2022-12-27T20:33:26.536Z,67.87
2022-12-27T20:35:59.305Z,68.15
2022-12-27T20:38:26.131Z,67.95
2022-12-27T20:40:52.746Z,67.45
2022-12-27T20:43:20.161Z,67.82
2022-12-27T20:45:46.705Z,67.74
2022-12-27T20:48:13.512Z,67.20
2022-12-27T20:50:40.897Z,67.21
2022-12-27T20:53:07.772Z,67.55
2022-12-27T20:55:34.514Z,68.50
2022-12-27T20:58:01.458Z,68.15
2022-12-27T21:00:28.035Z,68.14
2022-12-27T21:02:54.831Z,68.51
2022-12-27T21:05:21.507Z,67.58
2022-12-27T21:07:48.076Z,68.28
2022-12-27T21:10:14.963Z,67.70
2022-12-27T21:12:41.605Z,67.84
2022-12-27T21:15:08.575Z,68.43
2022-12-27T21:17:35.291Z,68.89
2022-12-27T21:20:01.853Z,68.53
2022-12-27T21:22:28.393Z,68.35
2022-12-27T21:24:54.904Z,68.26
2022-12-27T21:27:21.448Z,68.90
2022-12-27T21:29:47.937Z,68.12
2022-12-27T21:32:14.512Z,67.80
2022-12-27T21:34:41.262Z,68.16
2022-12-27T21:37:13.042Z,68.32
2022-12-27T21:39:40.286Z,68.51
2022-12-27T21:42:06.906Z,68.17
2022-12-27T21:44:35.372Z,67.83
2022-12-27T21:47:02.009Z,67.71
2022-12-27T21:49:28.666Z,67.97
2022-12-27T21:51:55.767Z,68.54
2022-12-27T21:54:22.333Z,68.78
2022-12-27T21:56:48.959Z,67.80
2022-12-27T21:59:15.519Z,68.20
2022-12-27T22:01:51.384Z,67.90
2022-12-27T22:04:20.288Z,67.73
2022-12-27T22:06:47.884Z,67.87
2022-12-27T22:09:15.282Z,68.36
2022-12-27T22:11:42.549Z,67.97
2022-12-27T22:14:09.133Z,67.55
2022-12-27T22:16:37.453Z,68.04
2022-12-27T22:19:13.454Z,67.98
2022-12-27T22:21:40.841Z,67.87
2022-12-27T22:24:07.753Z,68.43
2022-12-27T22:26:38.895Z,67.64
2022-12-27T22:29:06.443Z,67.70
2022-12-27T22:31:38.071Z,68.17
2022-12-27T22:34:05.469Z,67.61
2022-12-27T22:36:32.051Z,68.14
2022-12-27T22:38:59.742Z,67.81
2022-12-27T22:41:31.059Z,67.98
2022-12-27T22:44:08.690Z,67.48
2022-12-27T22:47:24.598Z,67.69
2022-12-27T22:49:22.302Z,67.94
2022-12-27T22:51:48.928Z,67.79
2022-12-27T22:54:15.535Z,67.83
2022-12-27T22:56:42.677Z,68.09
2022-12-27T22:59:13.556Z,68.34
2022-12-27T23:01:41.248Z,67.97
2022-12-27T23:04:08.732Z,68.28
2022-12-27T23:06:36.306Z,68.33
2022-12-27T23:09:03.926Z,68.21
2022-12-27T23:11:33.792Z,67.90
2022-12-27T23:14:03.183Z,68.64
2022-12-27T23:16:39.068Z,68.43
2022-12-27T23:19:06.597Z,68.55
2022-12-27T23:21:33.266Z,68.27
2022-12-27T23:24:01.530Z,68.24
2022-12-27T23:26:28.399Z,68.37
2022-12-27T23:28:55.269Z,68.44
2022-12-27T23:31:24.523Z,68.71
2022-12-27T23:33:51.908Z,68.53
2022-12-27T23:36:18.838Z,68.49
2022-12-27T23:38:49.104Z,68.80
2022-12-27T23:41:18.144Z,69.26
2022-12-27T23:43:53.802Z,68.39
2022-12-27T23:46:28.048Z,68.26
2022-12-27T23:48:56.066Z,68.50
2022-12-27T23:51:23.025Z,68.83
2022-12-27T23:53:49.793Z,68.26
2022-12-27T23:56:16.246Z,68.59
2022-12-27T23:58:43.353Z,68.36
